createdAt,value
2023-04-04T00:02:22.936Z,29.40
2023-04-04T00:07:27.659Z,29.40
2023-04-04T00:12:30.811Z,29.60
2023-04-04T00:17:33.896Z,29.60
2023-04-04T00:22:38.410Z,29.70
2023-04-04T00:27:41.576Z,29.70
2023-04-04T00:32:44.733Z,29.80
2023-04-04T00:37:49.278Z,29.70
2023-04-04T00:42:52.806Z,29.70
2023-04-04T00:47:57.091Z,29.70
2023-04-04T00:53:01.835Z,29.70
2023-04-04T00:58:05.003Z,29.90
2023-04-04T01:03:10.404Z,29.80
2023-04-04T01:08:15.816Z,29.80
2023-04-04T01:13:19.693Z,29.80
2023-04-04T01:18:25.149Z,30.00
2023-04-04T01:23:36.626Z,29.80
2023-04-04T01:28:41.106Z,29.90
2023-04-04T01:33:47.301Z,29.90
2023-04-04T01:38:55.696Z,29.90
2023-04-04T01:44:00.696Z,30.00
2023-04-04T01:49:03.786Z,30.00
2023-04-04T01:54:07.052Z,30.00
2023-04-04T01:59:11.633Z,30.00
2023-04-04T02:04:15.275Z,30.00
2023-04-04T02:09:18.642Z,29.90
2023-04-04T02:14:23.164Z,30.00
2023-04-04T02:19:26.243Z,30.00
2023-04-04T02:24:29.360Z,30.00
2023-04-04T02:29:33.832Z,29.90
2023-04-04T02:34:39.955Z,29.90
2023-04-04T02:39:43.063Z,30.00
2023-04-04T02:44:47.582Z,30.00
2023-04-04T02:49:50.679Z,29.90
2023-04-04T02:54:53.772Z,29.90
2023-04-04T02:59:58.308Z,30.00
2023-04-04T03:05:01.422Z,30.10
2023-04-04T03:10:04.577Z,30.10
2023-04-04T03:15:09.830Z,30.10
2023-04-04T03:20:15.125Z,30.10
2023-04-04T03:25:18.440Z,30.10
2023-04-04T03:30:23.015Z,30.00
2023-04-04T03:35:26.122Z,30.00
2023-04-04T03:40:29.224Z,30.00
2023-04-04T03:45:35.834Z,30.10
2023-04-04T03:50:40.727Z,30.00
2023-04-04T03:55:44.148Z,30.00
2023-04-04T04:00:50.137Z,30.00
2023-04-04T04:05:58.939Z,30.00
2023-04-04T04:11:05.844Z,30.00
2023-04-04T04:16:10.453Z,29.90
2023-04-04T04:21:13.555Z,29.90
2023-04-04T04:26:16.655Z,30.00
2023-04-04T04:31:21.143Z,29.90
2023-04-04T04:36:24.315Z,30.00
2023-04-04T04:41:28.126Z,30.00
2023-04-04T04:46:32.961Z,30.00
2023-04-04T04:51:36.113Z,30.00
2023-04-04T04:56:39.238Z,30.10
2023-04-04T05:01:43.788Z,30.00
2023-04-04T05:06:46.921Z,30.10
2023-04-04T05:11:50.028Z,30.10
2023-04-04T05:16:54.616Z,30.20
2023-04-04T05:21:57.764Z,30.30
2023-04-04T05:27:00.900Z,30.20
2023-04-04T05:32:05.769Z,30.30
2023-04-04T05:37:09.036Z,30.30
2023-04-04T05:42:12.108Z,30.30
2023-04-04T05:47:16.719Z,30.50
2023-04-04T05:52:19.822Z,30.50
2023-04-04T05:57:24.144Z,30.60
2023-04-04T06:02:30.129Z,30.80
2023-04-04T06:07:33.608Z,30.80
2023-04-04T06:12:36.689Z,30.80
2023-04-04T06:17:41.401Z,30.80
2023-04-04T06:22:44.516Z,30.70
2023-04-04T06:27:47.632Z,30.80
2023-04-04T06:32:52.519Z,30.80
2023-04-04T06:37:56.398Z,31.00
2023-04-04T06:42:59.469Z,31.00
2023-04-04T06:48:04.168Z,31.10
2023-04-04T06:53:07.479Z,31.00
2023-04-04T06:58:10.637Z,31.10
2023-04-04T07:03:15.164Z,31.00
2023-04-04T07:08:18.253Z,31.00
2023-04-04T07:13:21.580Z,31.00
2023-04-04T07:18:26.094Z,30.80
2023-04-04T07:23:29.236Z,30.90
2023-04-04T07:28:32.416Z,31.00
2023-04-04T07:33:37.015Z,31.20
2023-04-04T07:38:40.123Z,30.60
2023-04-04T07:43:43.224Z,30.70
2023-04-04T07:48:47.699Z,30.70
2023-04-04T07:53:50.773Z,30.40
2023-04-04T07:58:53.929Z,30.70
2023-04-04T08:03:58.553Z,30.50
2023-04-04T08:09:01.718Z,30.00
2023-04-04T08:14:06.077Z,29.90
2023-04-04T08:19:10.590Z,29.90
2023-04-04T08:24:14.024Z,29.40
2023-04-04T08:29:17.113Z,29.30
2023-04-04T08:34:23.616Z,29.30
2023-04-04T08:39:27.136Z,28.80
2023-04-04T08:44:31.419Z,29.10
2023-04-04T08:49:39.667Z,29.00
2023-04-04T08:54:44.196Z,28.50
2023-04-04T08:59:48.505Z,28.40
2023-04-04T09:05:05.392Z,28.60
2023-04-04T09:10:11.801Z,28.20
2023-04-04T09:15:16.030Z,28.30
2023-04-04T09:20:40.906Z,28.30
2023-04-04T09:30:55.481Z,27.70
2023-04-04T09:36:03.524Z,28.20
2023-04-04T09:41:09.777Z,28.20
2023-04-04T09:46:13.016Z,28.20
2023-04-04T09:51:17.584Z,28.50
2023-04-04T09:56:21.129Z,27.60
2023-04-04T10:01:25.641Z,28.10
2023-04-04T10:06:31.706Z,27.80
2023-04-04T10:11:38.518Z,27.90
2023-04-04T10:16:46.585Z,28.10
2023-04-04T10:21:51.567Z,27.60
2023-04-04T10:26:55.464Z,27.90
2023-04-04T10:32:04.516Z,27.80
2023-04-04T10:37:13.144Z,26.90
2023-04-04T10:42:17.572Z,27.20
2023-04-04T10:47:23.421Z,27.60
2023-04-04T10:52:31.885Z,27.20
2023-04-04T10:57:38.419Z,27.00
2023-04-04T11:02:45.702Z,27.30
2023-04-04T11:08:07.633Z,26.20
2023-04-04T11:13:14.667Z,26.10
2023-04-04T11:18:32.786Z,26.60
2023-04-04T11:24:14.337Z,27.20
2023-04-04T11:29:26.900Z,26.20
2023-04-04T11:34:34.137Z,25.90
2023-04-04T11:39:50.814Z,26.00
2023-04-04T11:45:05.014Z,25.20
2023-04-04T11:50:10.889Z,24.80
2023-04-04T11:55:19.710Z,26.20
2023-04-04T12:00:32.588Z,26.10
2023-04-04T12:05:36.273Z,25.50
2023-04-04T12:10:41.550Z,26.20
2023-04-04T12:15:45.136Z,26.50
2023-04-04T12:20:49.526Z,26.70
2023-04-04T12:25:55.815Z,26.20
2023-04-04T12:31:04.926Z,26.20
2023-04-04T12:36:08.747Z,26.40
2023-04-04T12:41:19.549Z,26.40
2023-04-04T12:46:28.321Z,25.30
2023-04-04T12:51:34.788Z,25.60
2023-04-04T12:56:39.290Z,25.80
2023-04-04T13:01:42.416Z,26.00
2023-04-04T13:06:47.765Z,26.20
2023-04-04T13:12:00.318Z,26.00
2023-04-04T13:17:05.783Z,25.40
2023-04-04T13:22:10.773Z,26.40
2023-04-04T13:27:15.266Z,26.40
2023-04-04T13:32:18.347Z,26.00
2023-04-04T13:37:21.441Z,26.20
2023-04-04T13:42:30.357Z,26.00
2023-04-04T13:47:33.525Z,25.70
2023-04-04T13:52:36.711Z,25.70
2023-04-04T13:57:41.370Z,25.90
2023-04-04T14:02:44.506Z,25.70
2023-04-04T14:07:47.759Z,24.80
2023-04-04T14:12:52.835Z,24.80
2023-04-04T14:17:56.105Z,24.70
2023-04-04T14:22:59.247Z,24.70
2023-04-04T14:28:03.739Z,24.80
2023-04-04T14:33:06.852Z,24.30
2023-04-04T14:38:10.036Z,24.70
2023-04-04T14:43:14.467Z,24.90
2023-04-04T14:48:17.567Z,24.70
2023-04-04T14:53:21.386Z,24.60
2023-04-04T14:58:25.924Z,24.40
2023-04-04T15:03:29.104Z,24.00
2023-04-04T15:08:32.211Z,24.10
2023-04-04T15:13:36.737Z,24.50
2023-04-04T15:18:40.285Z,24.10
2023-04-04T15:23:43.391Z,24.30
2023-04-04T15:28:49.292Z,24.40
2023-04-04T15:33:52.354Z,23.90
2023-04-04T15:38:55.551Z,24.00
2023-04-04T15:44:00.050Z,24.10
2023-04-04T15:49:04.198Z,23.80
2023-04-04T15:54:07.358Z,23.80
2023-04-04T15:59:11.853Z,24.00
2023-04-04T16:04:15.014Z,23.70
2023-04-04T16:09:19.633Z,23.80
2023-04-04T16:14:24.312Z,23.80
2023-04-04T16:19:27.368Z,23.20
2023-04-04T16:24:30.490Z,23.70
2023-04-04T16:29:34.899Z,23.70
2023-04-04T16:34:39.003Z,23.50
2023-04-04T16:39:42.315Z,23.60
2023-04-04T16:44:47.214Z,23.60
2023-04-04T16:49:50.440Z,23.20
2023-04-04T16:54:54.970Z,23.80
2023-04-04T16:59:59.599Z,23.50
2023-04-04T17:05:02.717Z,23.10
2023-04-04T17:10:06.757Z,23.40
2023-04-04T17:15:12.370Z,23.20
2023-04-04T17:20:18.181Z,22.80
2023-04-04T17:25:26.618Z,22.90
2023-04-04T17:30:31.166Z,22.90
2023-04-04T17:35:34.255Z,22.80
2023-04-04T17:40:37.443Z,23.10
2023-04-04T17:45:43.914Z,23.10
2023-04-04T17:50:47.013Z,22.50
2023-04-04T17:55:51.078Z,23.20
2023-04-04T18:00:57.535Z,23.30
2023-04-04T18:06:01.345Z,23.20
2023-04-04T18:11:04.989Z,23.50
2023-04-04T18:16:09.917Z,23.40
2023-04-04T18:21:13.615Z,23.30
2023-04-04T18:26:16.707Z,24.10
2023-04-04T18:31:21.555Z,24.10
2023-04-04T18:36:24.708Z,24.00
2023-04-04T18:41:27.836Z,24.10
2023-04-04T18:46:32.701Z,24.30
2023-04-04T18:51:36.087Z,24.60
2023-04-04T18:56:39.186Z,24.70
2023-04-04T19:01:43.643Z,24.70
2023-04-04T19:06:48.312Z,24.60
2023-04-04T19:11:54.781Z,24.70
2023-04-04T19:16:59.320Z,24.60
2023-04-04T19:22:02.489Z,24.80
2023-04-04T19:27:05.593Z,24.90
2023-04-04T19:32:14.942Z,24.90
2023-04-04T19:37:19.138Z,24.90
2023-04-04T19:42:30.395Z,25.00
2023-04-04T19:47:34.941Z,25.10
2023-04-04T19:52:38.197Z,25.10
2023-04-04T19:57:41.261Z,25.00
2023-04-04T20:02:57.816Z,25.10
2023-04-04T20:08:01.645Z,24.90
2023-04-04T20:13:07.034Z,25.00
2023-04-04T20:18:11.799Z,25.00
2023-04-04T20:23:16.903Z,25.10
2023-04-04T20:28:26.495Z,25.10
2023-04-04T20:33:36.308Z,25.40
2023-04-04T20:38:41.263Z,25.30
2023-04-04T20:43:51.959Z,25.40
2023-04-04T20:48:57.442Z,25.40
2023-04-04T20:54:02.303Z,25.40
2023-04-04T20:59:08.205Z,25.50
2023-04-04T21:04:25.106Z,25.60
2023-04-04T21:09:28.894Z,25.70
2023-04-04T21:14:37.357Z,25.80
2023-04-04T21:19:41.818Z,26.00
2023-04-04T21:24:44.893Z,25.90
2023-04-04T21:29:48.123Z,25.80
2023-04-04T21:34:52.605Z,25.90
2023-04-04T21:39:59.972Z,26.00
2023-04-04T21:45:03.050Z,26.20
2023-04-04T21:50:08.824Z,26.20
2023-04-04T21:55:11.928Z,26.50
2023-04-04T22:00:16.204Z,26.40
2023-04-04T22:05:23.798Z,26.60
2023-04-04T22:10:29.673Z,26.80
2023-04-04T22:15:32.774Z,26.70
2023-04-04T22:20:37.262Z,26.70
2023-04-04T22:25:40.636Z,26.90
2023-04-04T22:30:43.778Z,26.90
2023-04-04T22:35:48.314Z,26.90
2023-04-04T22:40:51.836Z,26.90
2023-04-04T22:45:54.995Z,26.80
2023-04-04T22:51:02.829Z,26.80
2023-04-04T22:56:06.152Z,26.70
2023-04-04T23:01:09.265Z,26.70
2023-04-04T23:06:13.744Z,26.60
2023-04-04T23:11:17.038Z,26.70
2023-04-04T23:16:23.563Z,26.70
2023-04-04T23:21:28.949Z,26.70
2023-04-04T23:26:32.597Z,26.60
2023-04-04T23:31:36.469Z,26.60
2023-04-04T23:36:40.977Z,26.70
2023-04-04T23:41:44.053Z,27.00
2023-04-04T23:46:47.469Z,26.90
2023-04-04T23:51:52.338Z,27.00
2023-04-04T23:56:56.127Z,27.10
